Greenville Downtown Airport
KGMU : now visible

Airfield :











YOU CAN JOIN US ON...

 
LOGIN :

Register | Disclaimer

   EN    FR    IT 

 









Legend :    VFR   Marginal VFR   IFR   Intensive IFR   Very Intensive IFR
Visi :
Ceiling :
>= 8 km
>= 3000ft
5 to 8 km
1000 to 3000 ft
1500m to 5 km
500 to 1000 ft
800 to 1500m
200 to 500 ft
< 800m
< 200 ft
Symbols :   Thunderstorms  Fog  Heavy snow  Heavy precipitations  Wind > 20 kt






- Airport Elevation : 1048 ft


KGMU - Greenville Downtown

CURRENT METAR :
  • 221153Z AUTO 22005KT 10SM SCT120 11/06 A3009 RMK AO2 SLP186 T01110061 10111 20094 56005

EXPIRED METARs :
  • 221053Z AUTO 25005KT 10SM FEW095 11/06 A3009 RMK AO2 SLP186 T01060056
  • 220953Z AUTO 23005KT 10SM CLR 10/06 A3009 RMK AO2 SLP187 T01000056

TAF KGMU
Valid from the 22 at 12:00 until the 23 at 12:00 UTC


221142Z 2212/2312 23004KT P6SM SCT090
FM221400 23008KT P6SM BKN120
FM222100 23009KT P6SM BKN040
FM230200 24003KT P6SM OVC040
PROB30 2302/2306 4SM -SHRA OVC025
FM230600 04003KT P6SM OVC028
PROB30 2306/2311 4SM -SHRA OVC015
FM231100 07006KT P6SM -SHRA OVC011



MET'MAP, your aeronautical weather chart ! - Copyright ORBIFLY December 2007 - Disclaimer

ORBIFLY MET'MAP TEAM :

Programming & Development : Alexandra Zaïnal
Concept & Development : Baudouin d'Aumeries
Co-Development & Prog : Marc-Olivier Méhu
Technical & hardware support : Manuel Goepfert

Contact : metmap@orbifly.com




SOURCES & CREDITS :

   NOAA       Earth
Advisory